sensor_id;sensor_type;location;lat;lon;timestamp;P1;durP1;ratioP1;P2;durP2;ratioP2
5795;SDS011;2924;51.458;7.046;2023-05-10T00:00:50;13.27;;;8.80;;
5795;SDS011;2924;51.458;7.046;2023-05-10T00:03:16;14.23;;;8.77;;
5795;SDS011;2924;51.458;7.046;2023-05-10T00:05:42;15.23;;;9.40;;
5795;SDS011;2924;51.458;7.046;2023-05-10T00:08:08;14.07;;;9.37;;
5795;SDS011;2924;51.458;7.046;2023-05-10T00:10:33;18.40;;;10.80;;
5795;SDS011;2924;51.458;7.046;2023-05-10T00:12:59;17.17;;;10.90;;
5795;SDS011;2924;51.458;7.046;2023-05-10T00:15:24;19.70;;;10.80;;
5795;SDS011;2924;51.458;7.046;2023-05-10T00:17:50;21.90;;;12.63;;
5795;SDS011;2924;51.458;7.046;2023-05-10T00:20:16;23.07;;;12.07;;
5795;SDS011;2924;51.458;7.046;2023-05-10T00:22:41;22.53;;;12.70;;
5795;SDS011;2924;51.458;7.046;2023-05-10T00:25:07;22.83;;;13.00;;
5795;SDS011;2924;51.458;7.046;2023-05-10T00:27:33;25.00;;;13.47;;
5795;SDS011;2924;51.458;7.046;2023-05-10T00:29:58;29.67;;;14.70;;
5795;SDS011;2924;51.458;7.046;2023-05-10T00:32:24;23.90;;;13.80;;
5795;SDS011;2924;51.458;7.046;2023-05-10T00:34:49;24.30;;;14.13;;
5795;SDS011;2924;51.458;7.046;2023-05-10T00:37:15;26.60;;;14.73;;
5795;SDS011;2924;51.458;7.046;2023-05-10T00:39:41;25.10;;;14.13;;
5795;SDS011;2924;51.458;7.046;2023-05-10T00:42:06;35.40;;;17.13;;
5795;SDS011;2924;51.458;7.046;2023-05-10T00:44:32;32.90;;;16.67;;
5795;SDS011;2924;51.458;7.046;2023-05-10T00:46:57;27.80;;;15.77;;
5795;SDS011;2924;51.458;7.046;2023-05-10T00:49:24;37.43;;;17.97;;
5795;SDS011;2924;51.458;7.046;2023-05-10T00:51:50;32.13;;;18.43;;
5795;SDS011;2924;51.458;7.046;2023-05-10T00:54:16;36.43;;;19.00;;
5795;SDS011;2924;51.458;7.046;2023-05-10T00:56:41;32.10;;;17.97;;
5795;SDS011;2924;51.458;7.046;2023-05-10T00:59:13;29.77;;;17.37;;
5795;SDS011;2924;51.458;7.046;2023-05-10T01:05:05;27.87;;;15.53;;
5795;SDS011;2924;51.458;7.046;2023-05-10T01:07:30;32.20;;;16.03;;
5795;SDS011;2924;51.458;7.046;2023-05-10T01:09:56;24.97;;;12.97;;
5795;SDS011;2924;51.458;7.046;2023-05-10T01:12:22;22.97;;;13.30;;
5795;SDS011;2924;51.458;7.046;2023-05-10T01:14:48;24.33;;;13.57;;
5795;SDS011;2924;51.458;7.046;2023-05-10T01:17:14;28.30;;;14.13;;
5795;SDS011;2924;51.458;7.046;2023-05-10T01:19:41;25.70;;;13.50;;
5795;SDS011;2924;51.458;7.046;2023-05-10T01:32:55;26.87;;;14.63;;
5795;SDS011;2924;51.458;7.046;2023-05-10T01:35:33;28.63;;;13.30;;
5795;SDS011;2924;51.458;7.046;2023-05-10T01:41:38;28.57;;;13.60;;
5795;SDS011;2924;51.458;7.046;2023-05-10T01:47:08;39.47;;;18.10;;
5795;SDS011;2924;51.458;7.046;2023-05-10T01:49:43;32.83;;;15.07;;
5795;SDS011;2924;51.458;7.046;2023-05-10T01:52:15;37.60;;;15.97;;
5795;SDS011;2924;51.458;7.046;2023-05-10T01:54:53;43.00;;;15.77;;
5795;SDS011;2924;51.458;7.046;2023-05-10T01:57:23;37.17;;;15.30;;
5795;SDS011;2924;51.458;7.046;2023-05-10T01:59:52;34.87;;;15.80;;
5795;SDS011;2924;51.458;7.046;2023-05-10T02:02:20;36.60;;;15.43;;
5795;SDS011;2924;51.458;7.046;2023-05-10T02:04:47;27.17;;;14.17;;
5795;SDS011;2924;51.458;7.046;2023-05-10T02:07:15;26.83;;;13.97;;
5795;SDS011;2924;51.458;7.046;2023-05-10T02:09:42;36.87;;;15.13;;
5795;SDS011;2924;51.458;7.046;2023-05-10T02:12:12;34.60;;;15.23;;
5795;SDS011;2924;51.458;7.046;2023-05-10T02:14:39;31.00;;;15.00;;
5795;SDS011;2924;51.458;7.046;2023-05-10T02:17:07;36.97;;;15.93;;
5795;SDS011;2924;51.458;7.046;2023-05-10T02:19:33;44.10;;;18.23;;
5795;SDS011;2924;51.458;7.046;2023-05-10T02:22:01;42.73;;;18.67;;
5795;SDS011;2924;51.458;7.046;2023-05-10T02:24:28;46.57;;;17.03;;
5795;SDS011;2924;51.458;7.046;2023-05-10T02:26:55;41.37;;;17.80;;
5795;SDS011;2924;51.458;7.046;2023-05-10T02:29:25;42.77;;;17.83;;
5795;SDS011;2924;51.458;7.046;2023-05-10T02:31:52;38.17;;;17.60;;
5795;SDS011;2924;51.458;7.046;2023-05-10T02:34:19;50.70;;;18.97;;
5795;SDS011;2924;51.458;7.046;2023-05-10T02:36:47;44.67;;;18.07;;
5795;SDS011;2924;51.458;7.046;2023-05-10T02:39:12;49.80;;;19.90;;
5795;SDS011;2924;51.458;7.046;2023-05-10T02:41:40;49.70;;;19.47;;
5795;SDS011;2924;51.458;7.046;2023-05-10T02:44:07;42.50;;;18.30;;
5795;SDS011;2924;51.458;7.046;2023-05-10T02:46:34;54.80;;;21.13;;
5795;SDS011;2924;51.458;7.046;2023-05-10T02:49:01;41.60;;;17.80;;
5795;SDS011;2924;51.458;7.046;2023-05-10T02:51:28;35.77;;;14.93;;
5795;SDS011;2924;51.458;7.046;2023-05-10T02:53:59;44.47;;;16.57;;
5795;SDS011;2924;51.458;7.046;2023-05-10T02:56:33;38.07;;;15.20;;
5795;SDS011;2924;51.458;7.046;2023-05-10T02:59:00;31.03;;;14.57;;
5795;SDS011;2924;51.458;7.046;2023-05-10T03:01:26;31.17;;;13.97;;
5795;SDS011;2924;51.458;7.046;2023-05-10T03:03:51;31.00;;;13.20;;
5795;SDS011;2924;51.458;7.046;2023-05-10T03:06:17;30.50;;;13.77;;
5795;SDS011;2924;51.458;7.046;2023-05-10T03:08:43;28.50;;;13.50;;
5795;SDS011;2924;51.458;7.046;2023-05-10T03:11:32;39.30;;;15.83;;
5795;SDS011;2924;51.458;7.046;2023-05-10T03:14:28;45.53;;;20.10;;
5795;SDS011;2924;51.458;7.046;2023-05-10T03:19:39;67.23;;;25.57;;
5795;SDS011;2924;51.458;7.046;2023-05-10T03:22:17;70.30;;;28.67;;
5795;SDS011;2924;51.458;7.046;2023-05-10T03:24:50;74.27;;;31.07;;
5795;SDS011;2924;51.458;7.046;2023-05-10T03:27:19;64.30;;;28.53;;
5795;SDS011;2924;51.458;7.046;2023-05-10T03:29:47;68.13;;;28.87;;
5795;SDS011;2924;51.458;7.046;2023-05-10T03:32:13;64.23;;;28.10;;
5795;SDS011;2924;51.458;7.046;2023-05-10T03:34:42;63.63;;;25.77;;
5795;SDS011;2924;51.458;7.046;2023-05-10T03:37:08;65.20;;;26.20;;
5795;SDS011;2924;51.458;7.046;2023-05-10T03:39:34;69.23;;;27.23;;
5795;SDS011;2924;51.458;7.046;2023-05-10T03:41:59;63.77;;;27.47;;
5795;SDS011;2924;51.458;7.046;2023-05-10T03:44:25;60.63;;;26.63;;
5795;SDS011;2924;51.458;7.046;2023-05-10T03:46:50;59.50;;;26.17;;
5795;SDS011;2924;51.458;7.046;2023-05-10T03:49:16;60.87;;;24.43;;
5795;SDS011;2924;51.458;7.046;2023-05-10T03:51:41;55.20;;;24.90;;
5795;SDS011;2924;51.458;7.046;2023-05-10T03:54:07;56.13;;;24.70;;
5795;SDS011;2924;51.458;7.046;2023-05-10T03:56:33;57.80;;;25.97;;
5795;SDS011;2924;51.458;7.046;2023-05-10T03:58:58;68.03;;;27.67;;
5795;SDS011;2924;51.458;7.046;2023-05-10T04:01:24;69.27;;;27.50;;
5795;SDS011;2924;51.458;7.046;2023-05-10T04:03:49;68.50;;;29.80;;
5795;SDS011;2924;51.458;7.046;2023-05-10T04:06:15;85.13;;;33.57;;
5795;SDS011;2924;51.458;7.046;2023-05-10T04:08:40;73.10;;;31.20;;
5795;SDS011;2924;51.458;7.046;2023-05-10T04:11:06;97.47;;;34.53;;
5795;SDS011;2924;51.458;7.046;2023-05-10T04:13:33;89.47;;;34.47;;
5795;SDS011;2924;51.458;7.046;2023-05-10T04:15:59;102.13;;;34.90;;
5795;SDS011;2924;51.458;7.046;2023-05-10T04:18:24;87.67;;;34.30;;
5795;SDS011;2924;51.458;7.046;2023-05-10T04:20:50;98.93;;;34.90;;
5795;SDS011;2924;51.458;7.046;2023-05-10T04:23:15;106.57;;;35.67;;
5795;SDS011;2924;51.458;7.046;2023-05-10T04:25:41;138.07;;;41.17;;
5795;SDS011;2924;51.458;7.046;2023-05-10T04:28:07;107.07;;;36.67;;
5795;SDS011;2924;51.458;7.046;2023-05-10T04:30:33;129.40;;;40.30;;
5795;SDS011;2924;51.458;7.046;2023-05-10T04:32:59;114.27;;;39.23;;
5795;SDS011;2924;51.458;7.046;2023-05-10T04:35:24;106.00;;;38.27;;
5795;SDS011;2924;51.458;7.046;2023-05-10T04:37:50;124.40;;;42.33;;
5795;SDS011;2924;51.458;7.046;2023-05-10T04:40:15;126.37;;;43.40;;
5795;SDS011;2924;51.458;7.046;2023-05-10T04:42:41;102.70;;;40.80;;
5795;SDS011;2924;51.458;7.046;2023-05-10T04:45:08;118.73;;;40.43;;
5795;SDS011;2924;51.458;7.046;2023-05-10T04:47:34;118.10;;;40.50;;
5795;SDS011;2924;51.458;7.046;2023-05-10T04:50:00;111.50;;;40.07;;
5795;SDS011;2924;51.458;7.046;2023-05-10T04:52:25;110.10;;;42.07;;
5795;SDS011;2924;51.458;7.046;2023-05-10T04:54:51;117.60;;;43.27;;
5795;SDS011;2924;51.458;7.046;2023-05-10T04:57:16;117.77;;;40.83;;
5795;SDS011;2924;51.458;7.046;2023-05-10T04:59:42;112.70;;;42.23;;
5795;SDS011;2924;51.458;7.046;2023-05-10T05:02:08;107.17;;;39.63;;
5795;SDS011;2924;51.458;7.046;2023-05-10T05:04:33;118.30;;;44.10;;
5795;SDS011;2924;51.458;7.046;2023-05-10T05:06:59;101.87;;;42.00;;
5795;SDS011;2924;51.458;7.046;2023-05-10T05:09:24;130.40;;;45.83;;
5795;SDS011;2924;51.458;7.046;2023-05-10T05:11:50;114.70;;;42.03;;
5795;SDS011;2924;51.458;7.046;2023-05-10T05:14:15;125.60;;;46.70;;
5795;SDS011;2924;51.458;7.046;2023-05-10T05:16:41;121.07;;;43.50;;
5795;SDS011;2924;51.458;7.046;2023-05-10T05:19:07;108.53;;;42.33;;
5795;SDS011;2924;51.458;7.046;2023-05-10T05:21:32;118.03;;;45.10;;
5795;SDS011;2924;51.458;7.046;2023-05-10T05:23:58;99.83;;;42.17;;
5795;SDS011;2924;51.458;7.046;2023-05-10T05:26:23;121.97;;;43.60;;
5795;SDS011;2924;51.458;7.046;2023-05-10T05:28:49;122.73;;;42.60;;
5795;SDS011;2924;51.458;7.046;2023-05-10T05:31:18;110.80;;;42.37;;
5795;SDS011;2924;51.458;7.046;2023-05-10T05:33:44;114.40;;;42.97;;
5795;SDS011;2924;51.458;7.046;2023-05-10T05:36:09;104.87;;;42.30;;
5795;SDS011;2924;51.458;7.046;2023-05-10T05:38:35;99.03;;;41.00;;
5795;SDS011;2924;51.458;7.046;2023-05-10T05:41:00;102.63;;;40.73;;
5795;SDS011;2924;51.458;7.046;2023-05-10T05:43:26;111.33;;;41.77;;
5795;SDS011;2924;51.458;7.046;2023-05-10T05:45:52;97.77;;;40.57;;
5795;SDS011;2924;51.458;7.046;2023-05-10T05:48:18;95.13;;;40.20;;
5795;SDS011;2924;51.458;7.046;2023-05-10T05:50:44;91.93;;;37.70;;
5795;SDS011;2924;51.458;7.046;2023-05-10T05:53:10;87.20;;;39.90;;
5795;SDS011;2924;51.458;7.046;2023-05-10T05:55:36;92.87;;;38.40;;
5795;SDS011;2924;51.458;7.046;2023-05-10T05:58:02;97.20;;;41.20;;
5795;SDS011;2924;51.458;7.046;2023-05-10T06:00:28;89.93;;;37.90;;
5795;SDS011;2924;51.458;7.046;2023-05-10T06:02:53;77.23;;;35.00;;
5795;SDS011;2924;51.458;7.046;2023-05-10T06:05:19;80.63;;;36.73;;
5795;SDS011;2924;51.458;7.046;2023-05-10T06:07:45;62.53;;;32.60;;
5795;SDS011;2924;51.458;7.046;2023-05-10T06:10:11;68.23;;;33.20;;
5795;SDS011;2924;51.458;7.046;2023-05-10T06:12:37;68.53;;;33.73;;
5795;SDS011;2924;51.458;7.046;2023-05-10T06:15:03;63.00;;;32.80;;
5795;SDS011;2924;51.458;7.046;2023-05-10T06:17:28;57.30;;;29.33;;
5795;SDS011;2924;51.458;7.046;2023-05-10T06:19:54;63.80;;;31.33;;
5795;SDS011;2924;51.458;7.046;2023-05-10T06:22:20;54.63;;;30.70;;
5795;SDS011;2924;51.458;7.046;2023-05-10T06:24:47;50.43;;;29.90;;
5795;SDS011;2924;51.458;7.046;2023-05-10T06:27:14;49.27;;;27.40;;
5795;SDS011;2924;51.458;7.046;2023-05-10T06:29:39;44.63;;;27.07;;
5795;SDS011;2924;51.458;7.046;2023-05-10T06:32:05;51.83;;;28.17;;
5795;SDS011;2924;51.458;7.046;2023-05-10T06:34:31;42.63;;;26.40;;
5795;SDS011;2924;51.458;7.046;2023-05-10T06:36:57;40.63;;;24.97;;
5795;SDS011;2924;51.458;7.046;2023-05-10T06:39:22;38.73;;;23.43;;
5795;SDS011;2924;51.458;7.046;2023-05-10T06:41:48;48.20;;;26.30;;
5795;SDS011;2924;51.458;7.046;2023-05-10T06:44:13;50.33;;;26.03;;
5795;SDS011;2924;51.458;7.046;2023-05-10T06:46:39;51.80;;;27.60;;
5795;SDS011;2924;51.458;7.046;2023-05-10T06:49:05;50.40;;;27.27;;
5795;SDS011;2924;51.458;7.046;2023-05-10T06:51:31;50.13;;;28.07;;
5795;SDS011;2924;51.458;7.046;2023-05-10T06:53:57;52.00;;;28.60;;
5795;SDS011;2924;51.458;7.046;2023-05-10T06:56:23;46.70;;;27.83;;
5795;SDS011;2924;51.458;7.046;2023-05-10T06:58:48;53.80;;;29.50;;
5795;SDS011;2924;51.458;7.046;2023-05-10T07:01:14;48.30;;;27.40;;
5795;SDS011;2924;51.458;7.046;2023-05-10T07:03:39;53.30;;;26.13;;
5795;SDS011;2924;51.458;7.046;2023-05-10T07:06:05;44.40;;;25.20;;
5795;SDS011;2924;51.458;7.046;2023-05-10T07:08:32;38.60;;;23.90;;
5795;SDS011;2924;51.458;7.046;2023-05-10T07:11:05;45.57;;;25.90;;
5795;SDS011;2924;51.458;7.046;2023-05-10T07:13:35;41.57;;;24.60;;
5795;SDS011;2924;51.458;7.046;2023-05-10T07:16:01;43.70;;;26.97;;
5795;SDS011;2924;51.458;7.046;2023-05-10T07:18:27;48.07;;;25.67;;
5795;SDS011;2924;51.458;7.046;2023-05-10T07:20:53;45.63;;;26.20;;
5795;SDS011;2924;51.458;7.046;2023-05-10T07:23:19;41.43;;;24.87;;
5795;SDS011;2924;51.458;7.046;2023-05-10T07:25:48;41.63;;;25.70;;
5795;SDS011;2924;51.458;7.046;2023-05-10T07:28:16;47.57;;;26.60;;
5795;SDS011;2924;51.458;7.046;2023-05-10T07:30:42;40.17;;;25.20;;
5795;SDS011;2924;51.458;7.046;2023-05-10T07:33:08;45.50;;;25.63;;
5795;SDS011;2924;51.458;7.046;2023-05-10T07:35:35;37.10;;;23.83;;
5795;SDS011;2924;51.458;7.046;2023-05-10T07:38:01;37.97;;;23.90;;
5795;SDS011;2924;51.458;7.046;2023-05-10T07:40:27;41.57;;;22.70;;
5795;SDS011;2924;51.458;7.046;2023-05-10T07:42:53;41.60;;;24.50;;
5795;SDS011;2924;51.458;7.046;2023-05-10T07:45:19;38.70;;;23.17;;
5795;SDS011;2924;51.458;7.046;2023-05-10T07:47:44;38.60;;;25.63;;
5795;SDS011;2924;51.458;7.046;2023-05-10T07:50:10;42.57;;;23.83;;
5795;SDS011;2924;51.458;7.046;2023-05-10T07:52:35;40.73;;;23.57;;
5795;SDS011;2924;51.458;7.046;2023-05-10T07:55:01;43.93;;;25.97;;
5795;SDS011;2924;51.458;7.046;2023-05-10T07:57:27;40.93;;;24.23;;
5795;SDS011;2924;51.458;7.046;2023-05-10T07:59:52;46.27;;;24.50;;
5795;SDS011;2924;51.458;7.046;2023-05-10T08:02:18;34.73;;;21.13;;
5795;SDS011;2924;51.458;7.046;2023-05-10T08:04:43;43.30;;;23.70;;
5795;SDS011;2924;51.458;7.046;2023-05-10T08:07:09;42.13;;;24.40;;
5795;SDS011;2924;51.458;7.046;2023-05-10T08:09:35;41.90;;;23.60;;
5795;SDS011;2924;51.458;7.046;2023-05-10T08:12:01;43.30;;;25.30;;
5795;SDS011;2924;51.458;7.046;2023-05-10T08:14:30;40.53;;;23.87;;
5795;SDS011;2924;51.458;7.046;2023-05-10T08:16:55;44.30;;;25.10;;
5795;SDS011;2924;51.458;7.046;2023-05-10T08:19:21;45.60;;;23.00;;
5795;SDS011;2924;51.458;7.046;2023-05-10T08:21:47;46.77;;;20.90;;
5795;SDS011;2924;51.458;7.046;2023-05-10T08:24:13;37.70;;;22.43;;
5795;SDS011;2924;51.458;7.046;2023-05-10T08:26:39;32.83;;;20.50;;
5795;SDS011;2924;51.458;7.046;2023-05-10T08:29:05;32.40;;;19.37;;
5795;SDS011;2924;51.458;7.046;2023-05-10T08:31:31;33.10;;;19.30;;
5795;SDS011;2924;51.458;7.046;2023-05-10T08:33:56;35.53;;;19.97;;
5795;SDS011;2924;51.458;7.046;2023-05-10T08:36:22;32.40;;;20.50;;
5795;SDS011;2924;51.458;7.046;2023-05-10T08:38:52;42.73;;;21.63;;
5795;SDS011;2924;51.458;7.046;2023-05-10T08:41:22;37.70;;;21.33;;
5795;SDS011;2924;51.458;7.046;2023-05-10T08:43:50;38.40;;;22.50;;
5795;SDS011;2924;51.458;7.046;2023-05-10T08:46:16;31.00;;;19.60;;
5795;SDS011;2924;51.458;7.046;2023-05-10T08:48:46;35.93;;;21.07;;
5795;SDS011;2924;51.458;7.046;2023-05-10T08:51:14;37.03;;;23.80;;
5795;SDS011;2924;51.458;7.046;2023-05-10T08:53:42;39.93;;;24.30;;
5795;SDS011;2924;51.458;7.046;2023-05-10T08:56:09;35.27;;;24.20;;
5795;SDS011;2924;51.458;7.046;2023-05-10T08:58:34;30.70;;;20.47;;
5795;SDS011;2924;51.458;7.046;2023-05-10T09:01:01;34.33;;;20.90;;
5795;SDS011;2924;51.458;7.046;2023-05-10T09:03:28;33.80;;;17.57;;
5795;SDS011;2924;51.458;7.046;2023-05-10T09:05:54;25.60;;;16.93;;
5795;SDS011;2924;51.458;7.046;2023-05-10T09:08:20;24.47;;;14.23;;
5795;SDS011;2924;51.458;7.046;2023-05-10T09:10:50;25.60;;;15.47;;
5795;SDS011;2924;51.458;7.046;2023-05-10T09:13:16;29.87;;;15.80;;
5795;SDS011;2924;51.458;7.046;2023-05-10T09:15:43;28.63;;;18.20;;
5795;SDS011;2924;51.458;7.046;2023-05-10T09:18:09;26.03;;;16.40;;
5795;SDS011;2924;51.458;7.046;2023-05-10T09:20:35;32.67;;;18.17;;
5795;SDS011;2924;51.458;7.046;2023-05-10T09:23:01;31.27;;;18.70;;
5795;SDS011;2924;51.458;7.046;2023-05-10T09:25:26;27.80;;;18.47;;
5795;SDS011;2924;51.458;7.046;2023-05-10T09:27:52;27.93;;;18.03;;
5795;SDS011;2924;51.458;7.046;2023-05-10T09:30:28;30.87;;;19.30;;
5795;SDS011;2924;51.458;7.046;2023-05-10T09:32:55;40.03;;;22.20;;
5795;SDS011;2924;51.458;7.046;2023-05-10T09:35:23;34.07;;;21.73;;
5795;SDS011;2924;51.458;7.046;2023-05-10T09:37:50;42.50;;;25.00;;
5795;SDS011;2924;51.458;7.046;2023-05-10T09:40:22;41.83;;;22.13;;
5795;SDS011;2924;51.458;7.046;2023-05-10T09:42:53;36.30;;;21.23;;
5795;SDS011;2924;51.458;7.046;2023-05-10T09:45:24;38.00;;;21.77;;
5795;SDS011;2924;51.458;7.046;2023-05-10T09:47:51;31.87;;;21.30;;
5795;SDS011;2924;51.458;7.046;2023-05-10T09:50:18;40.47;;;21.67;;
5795;SDS011;2924;51.458;7.046;2023-05-10T09:52:48;33.70;;;21.40;;
5795;SDS011;2924;51.458;7.046;2023-05-10T09:55:16;30.57;;;18.87;;
5795;SDS011;2924;51.458;7.046;2023-05-10T09:57:44;28.20;;;17.43;;
5795;SDS011;2924;51.458;7.046;2023-05-10T10:00:14;34.33;;;17.30;;
5795;SDS011;2924;51.458;7.046;2023-05-10T10:02:44;28.90;;;18.47;;
5795;SDS011;2924;51.458;7.046;2023-05-10T10:05:18;28.13;;;17.43;;
5795;SDS011;2924;51.458;7.046;2023-05-10T10:07:44;30.53;;;17.67;;
5795;SDS011;2924;51.458;7.046;2023-05-10T10:10:10;26.07;;;15.97;;
5795;SDS011;2924;51.458;7.046;2023-05-10T10:12:37;23.60;;;14.37;;
5795;SDS011;2924;51.458;7.046;2023-05-10T10:15:04;25.10;;;14.57;;
5795;SDS011;2924;51.458;7.046;2023-05-10T10:17:31;21.00;;;15.27;;
5795;SDS011;2924;51.458;7.046;2023-05-10T10:20:00;24.03;;;14.53;;
5795;SDS011;2924;51.458;7.046;2023-05-10T10:22:28;17.60;;;12.73;;
5795;SDS011;2924;51.458;7.046;2023-05-10T10:24:53;22.10;;;15.40;;
5795;SDS011;2924;51.458;7.046;2023-05-10T10:27:22;22.97;;;16.50;;
5795;SDS011;2924;51.458;7.046;2023-05-10T10:30:40;20.23;;;14.50;;
5795;SDS011;2924;51.458;7.046;2023-05-10T10:35:25;17.80;;;12.47;;
5795;SDS011;2924;51.458;7.046;2023-05-10T10:37:50;18.30;;;13.50;;
5795;SDS011;2924;51.458;7.046;2023-05-10T10:40:23;24.17;;;13.37;;
5795;SDS011;2924;51.458;7.046;2023-05-10T10:43:20;22.17;;;14.07;;
5795;SDS011;2924;51.458;7.046;2023-05-10T10:48:51;30.17;;;15.23;;
5795;SDS011;2924;51.458;7.046;2023-05-10T10:51:37;24.27;;;14.23;;
5795;SDS011;2924;51.458;7.046;2023-05-10T10:54:09;24.43;;;14.63;;
5795;SDS011;2924;51.458;7.046;2023-05-10T10:56:35;28.97;;;16.93;;
5795;SDS011;2924;51.458;7.046;2023-05-10T10:59:01;19.13;;;13.97;;
5795;SDS011;2924;51.458;7.046;2023-05-10T11:01:27;17.67;;;12.70;;
5795;SDS011;2924;51.458;7.046;2023-05-10T11:08:57;18.97;;;11.67;;
5795;SDS011;2924;51.458;7.046;2023-05-10T11:11:23;22.43;;;11.97;;
5795;SDS011;2924;51.458;7.046;2023-05-10T11:13:49;16.40;;;11.53;;
5795;SDS011;2924;51.458;7.046;2023-05-10T11:18:51;18.60;;;11.80;;
5795;SDS011;2924;51.458;7.046;2023-05-10T11:21:18;15.93;;;10.27;;
5795;SDS011;2924;51.458;7.046;2023-05-10T11:23:48;19.00;;;11.30;;
5795;SDS011;2924;51.458;7.046;2023-05-10T11:26:15;13.07;;;10.33;;
5795;SDS011;2924;51.458;7.046;2023-05-10T11:28:45;16.83;;;12.00;;
5795;SDS011;2924;51.458;7.046;2023-05-10T11:31:18;19.90;;;11.60;;
5795;SDS011;2924;51.458;7.046;2023-05-10T11:36:16;20.60;;;12.10;;
5795;SDS011;2924;51.458;7.046;2023-05-10T11:38:45;16.77;;;11.60;;
5795;SDS011;2924;51.458;7.046;2023-05-10T11:41:12;21.93;;;13.67;;
5795;SDS011;2924;51.458;7.046;2023-05-10T11:43:41;24.63;;;14.00;;
5795;SDS011;2924;51.458;7.046;2023-05-10T11:46:10;19.27;;;13.23;;
5795;SDS011;2924;51.458;7.046;2023-05-10T11:48:41;17.87;;;12.73;;
5795;SDS011;2924;51.458;7.046;2023-05-10T11:51:07;18.23;;;14.13;;
5795;SDS011;2924;51.458;7.046;2023-05-10T11:53:33;16.80;;;12.80;;
5795;SDS011;2924;51.458;7.046;2023-05-10T11:56:06;19.20;;;11.37;;
5795;SDS011;2924;51.458;7.046;2023-05-10T11:58:32;16.93;;;11.67;;
5795;SDS011;2924;51.458;7.046;2023-05-10T12:00:59;17.60;;;11.20;;
5795;SDS011;2924;51.458;7.046;2023-05-10T12:03:26;21.93;;;11.53;;
5795;SDS011;2924;51.458;7.046;2023-05-10T12:05:52;20.80;;;12.30;;
5795;SDS011;2924;51.458;7.046;2023-05-10T12:08:20;23.70;;;12.40;;
5795;SDS011;2924;51.458;7.046;2023-05-10T12:10:47;17.80;;;11.47;;
5795;SDS011;2924;51.458;7.046;2023-05-10T12:13:13;18.13;;;11.83;;
5795;SDS011;2924;51.458;7.046;2023-05-10T12:15:40;15.77;;;11.80;;
5795;SDS011;2924;51.458;7.046;2023-05-10T12:18:07;17.27;;;11.87;;
5795;SDS011;2924;51.458;7.046;2023-05-10T12:20:36;16.67;;;11.63;;
5795;SDS011;2924;51.458;7.046;2023-05-10T12:23:02;24.80;;;11.57;;
5795;SDS011;2924;51.458;7.046;2023-05-10T12:25:35;16.83;;;11.30;;
5795;SDS011;2924;51.458;7.046;2023-05-10T12:28:05;16.97;;;10.33;;
5795;SDS011;2924;51.458;7.046;2023-05-10T12:30:33;12.87;;;9.57;;
5795;SDS011;2924;51.458;7.046;2023-05-10T12:33:09;11.43;;;9.17;;
5795;SDS011;2924;51.458;7.046;2023-05-10T12:38:28;11.33;;;9.00;;
5795;SDS011;2924;51.458;7.046;2023-05-10T12:41:00;16.37;;;8.63;;
5795;SDS011;2924;51.458;7.046;2023-05-10T12:43:27;8.83;;;7.67;;
5795;SDS011;2924;51.458;7.046;2023-05-10T12:45:53;7.00;;;6.30;;
5795;SDS011;2924;51.458;7.046;2023-05-10T12:48:19;5.53;;;5.03;;
5795;SDS011;2924;51.458;7.046;2023-05-10T12:50:45;7.93;;;5.00;;
5795;SDS011;2924;51.458;7.046;2023-05-10T12:53:12;7.63;;;5.00;;
5795;SDS011;2924;51.458;7.046;2023-05-10T12:55:40;6.20;;;4.80;;
5795;SDS011;2924;51.458;7.046;2023-05-10T12:58:06;7.07;;;4.10;;
5795;SDS011;2924;51.458;7.046;2023-05-10T13:00:31;5.33;;;3.90;;
5795;SDS011;2924;51.458;7.046;2023-05-10T13:02:57;3.80;;;3.50;;
5795;SDS011;2924;51.458;7.046;2023-05-10T13:05:22;6.07;;;3.87;;
5795;SDS011;2924;51.458;7.046;2023-05-10T13:07:48;4.90;;;4.33;;
5795;SDS011;2924;51.458;7.046;2023-05-10T13:10:14;8.00;;;4.33;;
5795;SDS011;2924;51.458;7.046;2023-05-10T13:12:39;4.40;;;4.00;;
5795;SDS011;2924;51.458;7.046;2023-05-10T13:15:05;4.00;;;3.10;;
5795;SDS011;2924;51.458;7.046;2023-05-10T13:17:31;7.17;;;3.53;;
5795;SDS011;2924;51.458;7.046;2023-05-10T13:19:57;5.53;;;4.07;;
5795;SDS011;2924;51.458;7.046;2023-05-10T13:22:22;3.77;;;3.47;;
5795;SDS011;2924;51.458;7.046;2023-05-10T13:24:48;7.30;;;4.23;;
5795;SDS011;2924;51.458;7.046;2023-05-10T13:27:13;5.83;;;3.60;;
5795;SDS011;2924;51.458;7.046;2023-05-10T13:29:39;4.80;;;3.23;;
5795;SDS011;2924;51.458;7.046;2023-05-10T13:32:05;5.37;;;3.77;;
5795;SDS011;2924;51.458;7.046;2023-05-10T13:34:30;5.77;;;3.63;;
5795;SDS011;2924;51.458;7.046;2023-05-10T13:36:56;4.37;;;3.10;;
5795;SDS011;2924;51.458;7.046;2023-05-10T13:39:22;5.80;;;3.47;;
5795;SDS011;2924;51.458;7.046;2023-05-10T13:41:48;5.37;;;3.90;;
5795;SDS011;2924;51.458;7.046;2023-05-10T13:44:14;4.50;;;4.07;;
5795;SDS011;2924;51.458;7.046;2023-05-10T13:46:40;6.13;;;4.50;;
5795;SDS011;2924;51.458;7.046;2023-05-10T13:49:08;6.50;;;5.13;;
5795;SDS011;2924;51.458;7.046;2023-05-10T13:51:34;12.97;;;5.20;;
5795;SDS011;2924;51.458;7.046;2023-05-10T13:53:59;8.00;;;4.83;;
5795;SDS011;2924;51.458;7.046;2023-05-10T13:56:25;6.83;;;4.30;;
5795;SDS011;2924;51.458;7.046;2023-05-10T13:58:50;7.80;;;5.57;;
5795;SDS011;2924;51.458;7.046;2023-05-10T14:01:16;12.53;;;6.00;;
5795;SDS011;2924;51.458;7.046;2023-05-10T14:03:42;5.87;;;4.20;;
5795;SDS011;2924;51.458;7.046;2023-05-10T14:06:07;5.87;;;5.20;;
5795;SDS011;2924;51.458;7.046;2023-05-10T14:08:33;7.33;;;4.90;;
5795;SDS011;2924;51.458;7.046;2023-05-10T14:11:00;8.83;;;5.07;;
5795;SDS011;2924;51.458;7.046;2023-05-10T14:13:25;7.37;;;4.70;;
5795;SDS011;2924;51.458;7.046;2023-05-10T14:15:52;6.70;;;5.27;;
5795;SDS011;2924;51.458;7.046;2023-05-10T14:18:18;6.30;;;4.57;;
5795;SDS011;2924;51.458;7.046;2023-05-10T14:20:44;5.10;;;3.00;;
5795;SDS011;2924;51.458;7.046;2023-05-10T14:23:09;4.87;;;3.60;;
5795;SDS011;2924;51.458;7.046;2023-05-10T14:25:35;4.40;;;3.13;;
5795;SDS011;2924;51.458;7.046;2023-05-10T14:28:00;2.93;;;2.73;;
5795;SDS011;2924;51.458;7.046;2023-05-10T14:30:26;4.70;;;2.87;;
5795;SDS011;2924;51.458;7.046;2023-05-10T14:32:52;3.73;;;3.13;;
5795;SDS011;2924;51.458;7.046;2023-05-10T14:35:18;3.40;;;3.10;;
5795;SDS011;2924;51.458;7.046;2023-05-10T14:37:44;3.47;;;3.17;;
5795;SDS011;2924;51.458;7.046;2023-05-10T14:40:10;5.53;;;2.93;;
5795;SDS011;2924;51.458;7.046;2023-05-10T14:42:36;6.03;;;3.90;;
5795;SDS011;2924;51.458;7.046;2023-05-10T14:45:02;7.80;;;5.40;;
5795;SDS011;2924;51.458;7.046;2023-05-10T14:47:28;8.93;;;3.97;;
5795;SDS011;2924;51.458;7.046;2023-05-10T14:49:54;5.03;;;4.57;;
5795;SDS011;2924;51.458;7.046;2023-05-10T14:52:19;5.73;;;4.90;;
5795;SDS011;2924;51.458;7.046;2023-05-10T14:54:45;6.23;;;4.20;;
5795;SDS011;2924;51.458;7.046;2023-05-10T14:57:11;4.60;;;4.00;;
5795;SDS011;2924;51.458;7.046;2023-05-10T14:59:36;8.57;;;4.80;;
5795;SDS011;2924;51.458;7.046;2023-05-10T15:02:02;5.80;;;5.10;;
5795;SDS011;2924;51.458;7.046;2023-05-10T15:04:29;6.83;;;4.63;;
5795;SDS011;2924;51.458;7.046;2023-05-10T15:06:54;7.97;;;6.60;;
5795;SDS011;2924;51.458;7.046;2023-05-10T15:09:24;8.53;;;5.60;;
5795;SDS011;2924;51.458;7.046;2023-05-10T15:11:50;7.00;;;5.73;;
5795;SDS011;2924;51.458;7.046;2023-05-10T15:14:15;6.73;;;5.67;;
5795;SDS011;2924;51.458;7.046;2023-05-10T15:16:41;13.90;;;5.97;;
5795;SDS011;2924;51.458;7.046;2023-05-10T15:19:07;7.33;;;5.10;;
5795;SDS011;2924;51.458;7.046;2023-05-10T15:21:32;6.00;;;4.80;;
5795;SDS011;2924;51.458;7.046;2023-05-10T15:24:06;10.67;;;6.80;;
5795;SDS011;2924;51.458;7.046;2023-05-10T15:26:32;7.07;;;5.10;;
5795;SDS011;2924;51.458;7.046;2023-05-10T15:28:58;12.50;;;6.53;;
5795;SDS011;2924;51.458;7.046;2023-05-10T15:31:24;12.93;;;8.57;;
5795;SDS011;2924;51.458;7.046;2023-05-10T15:33:49;11.77;;;8.90;;